Time;durP1;ratioP1;P1;durP2;ratioP2;P2;SDS_P1;SDS_P2;PMS_P1;PMS_P2;Temp;Humidity;BMP_temperature;BMP_pressure;BME280_temperature;BME280_humidity;BME280_pressure;Samples;Min_cycle;Max_cycle;Signal;HPM_P1;HPM_P2
2023/08/20 00:03:56;;;;;;;17.00;14.50;;;;;;;23.10;100.00;100494.90;181069;1259;58394;-90
2023/08/20 00:08:00;;;;;;;15.20;13.20;;;;;;;23.10;100.00;100497.79;181103;1260;43950;-90
2023/08/20 00:12:05;;;;;;;16.30;13.80;;;;;;;23.02;100.00;100496.50;181098;1260;43854;-90
2023/08/20 00:16:09;;;;;;;16.30;12.40;;;;;;;22.88;100.00;100495.15;181053;1260;43840;-90
2023/08/20 00:20:14;;;;;;;23.00;15.80;;;;;;;22.86;100.00;100486.18;181046;1262;43825;-90
2023/08/20 00:24:18;;;;;;;21.90;16.40;;;;;;;22.87;100.00;100481.34;181004;1260;60020;-89
2023/08/20 00:28:22;;;;;;;14.90;13.40;;;;;;;22.84;100.00;100482.59;181011;1261;44107;-90
2023/08/20 00:32:26;;;;;;;18.80;15.80;;;;;;;22.71;100.00;100475.48;181075;1261;43889;-90
2023/08/20 00:36:29;;;;;;;18.80;14.30;;;;;;;22.55;100.00;100477.20;181069;1261;44004;-90
2023/08/20 00:40:33;;;;;;;14.40;12.70;;;;;;;22.37;100.00;100475.93;180987;1261;44226;-89
2023/08/20 00:44:37;;;;;;;16.10;13.00;;;;;;;22.35;100.00;100475.22;181046;1261;58975;-90
2023/08/20 00:48:41;;;;;;;16.50;14.60;;;;;;;22.42;100.00;100475.97;181003;1260;43921;-90
2023/08/20 00:52:46;;;;;;;17.50;13.80;;;;;;;22.45;100.00;100469.03;180958;1265;43699;-89
2023/08/20 00:56:50;;;;;;;15.40;13.90;;;;;;;22.49;100.00;100468.02;181001;1260;43851;-90
2023/08/20 01:00:53;;;;;;;15.60;13.90;;;;;;;22.49;100.00;100468.15;181131;1263;44029;-90
2023/08/20 01:04:57;;;;;;;19.70;15.70;;;;;;;22.37;100.00;100469.65;181080;1263;59624;-89
2023/08/20 01:09:28;;;;;;;16.10;14.40;;;;;;;22.34;100.00;100470.92;180944;1261;44052;-89
2023/08/20 01:13:32;;;;;;;16.30;13.20;;;;;;;22.33;100.00;100472.66;180430;1269;43263;-90
2023/08/20 01:17:36;;;;;;;19.00;14.60;;;;;;;22.31;100.00;100473.27;180088;1268;43831;-90
2023/08/20 01:22:06;;;;;;;20.70;15.80;;;;;;;22.24;100.00;100482.00;180088;1268;45976;-89
2023/08/20 01:26:22;;;;;;;18.20;16.10;;;;;;;22.24;100.00;100482.49;179212;1274;58272;-89
2023/08/20 01:30:26;;;;;;;16.30;14.20;;;;;;;22.25;100.00;100486.45;179206;1274;44068;-90
2023/08/20 01:34:31;;;;;;;16.40;12.60;;;;;;;22.24;100.00;100485.28;179269;1274;43821;-90
2023/08/20 01:38:34;;;;;;;15.00;13.00;;;;;;;22.22;100.00;100491.48;179138;1274;43837;-89
2023/08/20 01:42:39;;;;;;;17.50;15.60;;;;;;;22.21;100.00;100488.42;179100;1274;43995;-89
2023/08/20 01:46:42;;;;;;;13.80;12.00;;;;;;;22.15;100.00;100487.17;179197;1274;60307;-90
2023/08/20 01:50:46;;;;;;;16.50;12.90;;;;;;;22.09;100.00;100486.27;179837;1268;44207;-90
2023/08/20 01:54:50;;;;;;;15.20;12.70;;;;;;;22.01;100.00;100490.02;180231;1268;43792;-88
2023/08/20 01:58:53;;;;;;;17.80;14.00;;;;;;;21.92;100.00;100500.70;180125;1268;44236;-89
2023/08/20 02:02:57;;;;;;;19.70;12.20;;;;;;;21.79;100.00;100503.56;180671;1261;44106;-89
2023/08/20 02:07:00;;;;;;;17.70;15.90;;;;;;;21.73;100.00;100503.05;181029;1260;59310;-89
2023/08/20 02:11:04;;;;;;;13.60;12.00;;;;;;;21.67;100.00;100504.08;180940;1261;44099;-90
2023/08/20 02:15:09;;;;;;;17.90;15.20;;;;;;;21.66;100.00;100505.39;181057;1263;43979;-89
2023/08/20 02:19:13;;;;;;;13.10;10.90;;;;;;;21.65;100.00;100508.21;180972;1263;43822;-89
2023/08/20 02:23:17;;;;;;;13.20;10.50;;;;;;;21.68;100.00;100509.27;181027;1263;44012;-89
2023/08/20 02:27:20;;;;;;;18.20;11.50;;;;;;;21.67;100.00;100509.61;180940;1261;58773;-89
2023/08/20 02:31:24;;;;;;;15.40;12.60;;;;;;;21.61;100.00;100509.20;180923;1260;44144;-89
2023/08/20 02:35:30;;;;;;;14.10;11.00;;;;;;;21.57;100.00;100513.73;180989;1260;43850;-90
2023/08/20 02:39:34;;;;;;;12.70;11.40;;;;;;;21.55;100.00;100514.48;180929;1261;43816;-88
2023/08/20 02:43:40;;;;;;;18.60;15.90;;;;;;;21.54;100.00;100511.84;180942;1261;43781;-89
2023/08/20 02:47:44;;;;;;;12.70;11.30;;;;;;;21.56;100.00;100513.14;180893;1263;59455;-89
2023/08/20 02:51:48;;;;;;;12.70;11.30;;;;;;;21.53;100.00;100516.20;181039;1260;43788;-89
2023/08/20 02:55:51;;;;;;;14.60;11.40;;;;;;;21.41;100.00;100523.23;181019;1260;43622;-90
2023/08/20 02:59:55;;;;;;;13.10;11.50;;;;;;;21.41;100.00;100517.46;180999;1260;44720;-89
2023/08/20 03:03:59;;;;;;;11.70;10.50;;;;;;;21.40;100.00;100513.81;180983;1261;43131;-90
2023/08/20 03:08:06;;;;;;;14.80;12.40;;;;;;;21.38;100.00;100511.95;180986;1261;60570;-89
2023/08/20 03:12:10;;;;;;;18.70;13.20;;;;;;;21.31;100.00;100506.19;180946;1261;43710;-89
2023/08/20 03:16:16;;;;;;;20.70;12.90;;;;;;;21.23;100.00;100501.66;181116;1260;43776;-89
2023/08/20 03:20:19;;;;;;;16.00;10.90;;;;;;;21.14;100.00;100495.39;180955;1260;43987;-89
2023/08/20 03:24:23;;;;;;;10.10;9.20;;;;;;;20.96;100.00;100496.50;180955;1260;43751;-89
2023/08/20 03:28:26;;;;;;;10.80;9.80;;;;;;;20.73;100.00;100498.86;181028;1260;59672;-90
2023/08/20 03:32:30;;;;;;;14.40;12.90;;;;;;;20.57;100.00;100503.55;180950;1261;43764;-89
2023/08/20 03:36:34;;;;;;;11.30;10.20;;;;;;;20.51;100.00;100511.98;180959;1261;44035;-88
2023/08/20 03:40:37;;;;;;;11.50;10.50;;;;;;;20.47;100.00;100513.43;180950;1260;43689;-90
2023/08/20 03:44:41;;;;;;;13.50;12.00;;;;;;;20.42;100.00;100517.34;180955;1259;43744;-88
2023/08/20 03:48:44;;;;;;;15.60;13.10;;;;;;;20.48;100.00;100521.04;181038;1260;60513;-89
2023/08/20 03:52:48;;;;;;;13.70;11.20;;;;;;;20.59;100.00;100521.59;181002;1259;44122;-89
2023/08/20 03:56:52;;;;;;;15.50;13.10;;;;;;;20.73;100.00;100518.94;180952;1260;44022;-88
2023/08/20 04:00:55;;;;;;;13.20;10.50;;;;;;;20.82;100.00;100521.38;181013;1261;43732;-89
2023/08/20 04:04:59;;;;;;;16.10;10.50;;;;;;;20.93;100.00;100524.76;180895;1263;44749;-89
2023/08/20 04:09:03;;;;;;;14.90;12.60;;;;;;;21.05;100.00;100526.48;180991;1260;58371;-89
2023/08/20 04:13:07;;;;;;;18.80;12.70;;;;;;;21.12;100.00;100524.79;180878;1261;44073;-89
2023/08/20 04:17:11;;;;;;;11.30;9.80;;;;;;;21.42;100.00;100529.15;180929;1261;44041;-89
2023/08/20 04:21:14;;;;;;;12.20;10.50;;;;;;;21.97;100.00;100529.91;181043;1259;44152;-89
2023/08/20 04:25:18;;;;;;;14.20;12.70;;;;;;;22.46;100.00;100528.20;180905;1266;43839;-89
2023/08/20 04:29:21;;;;;;;13.70;11.10;;;;;;;22.60;100.00;100528.15;180954;1260;59586;-89
2023/08/20 04:33:25;;;;;;;12.50;9.90;;;;;;;22.92;100.00;100528.01;180942;1261;43696;-89
2023/08/20 04:37:28;;;;;;;14.20;12.20;;;;;;;23.49;100.00;100530.77;180989;1261;44046;-89
2023/08/20 04:41:32;;;;;;;12.50;10.60;;;;;;;24.20;100.00;100533.89;180984;1260;43908;-89
2023/08/20 04:45:36;;;;;;;13.40;12.00;;;;;;;24.91;100.00;100531.62;181009;1261;43882;-89
2023/08/20 04:49:40;;;;;;;12.30;10.90;;;;;;;25.65;100.00;100533.17;180928;1261;60058;-90
2023/08/20 04:53:44;;;;;;;11.00;9.90;;;;;;;26.29;100.00;100533.95;180971;1260;43815;-90
2023/08/20 04:57:48;;;;;;;12.20;9.90;;;;;;;26.84;100.00;100534.94;181059;1260;43719;-89
2023/08/20 05:01:52;;;;;;;10.20;9.20;;;;;;;27.36;99.99;100537.36;181042;1260;43809;-89
2023/08/20 05:05:56;;;;;;;13.20;10.90;;;;;;;27.80;97.21;100536.77;181052;1260;43483;-89
2023/08/20 05:10:00;;;;;;;9.90;8.80;;;;;;;28.28;93.20;100534.34;181051;1260;58019;-89
2023/08/20 05:14:04;;;;;;;9.10;8.20;;;;;;;28.67;89.59;100534.44;181003;1260;43994;-89
2023/08/20 05:18:08;;;;;;;12.10;10.90;;;;;;;29.09;87.30;100538.10;181008;1261;43827;-89
2023/08/20 05:22:12;;;;;;;15.50;10.90;;;;;;;29.39;84.34;100535.06;181053;1260;43142;-89
2023/08/20 05:26:16;;;;;;;11.60;9.70;;;;;;;29.72;83.50;100531.61;180982;1260;44053;-90
2023/08/20 05:30:20;;;;;;;13.10;9.20;;;;;;;29.71;82.28;100533.89;181063;1264;59614;-88
2023/08/20 05:34:24;;;;;;;10.70;9.70;;;;;;;29.65;82.84;100542.19;181077;1260;43843;-89
2023/08/20 05:38:28;;;;;;;10.50;7.80;;;;;;;29.91;83.66;100544.19;181033;1261;43718;-89
2023/08/20 05:42:33;;;;;;;9.20;8.20;;;;;;;30.04;83.55;100548.31;181030;1260;43841;-89
2023/08/20 05:46:40;;;;;;;10.70;9.60;;;;;;;30.18;81.51;100552.60;180992;1263;43785;-89
2023/08/20 05:50:49;;;;;;;12.00;8.30;;;;;;;29.71;81.70;100555.41;181086;1260;58612;-89
2023/08/20 05:54:54;;;;;;;10.90;9.80;;;;;;;29.36;84.15;100555.61;180976;1260;43817;-89
2023/08/20 05:58:58;;;;;;;11.60;10.50;;;;;;;29.24;85.86;100555.05;181072;1260;43772;-89
2023/08/20 06:03:02;;;;;;;11.10;10.00;;;;;;;29.60;85.69;100559.69;181050;1260;43171;-90
2023/08/20 06:07:06;;;;;;;10.80;9.00;;;;;;;30.05;83.39;100560.72;181067;1260;43733;-89
2023/08/20 06:11:11;;;;;;;11.50;9.30;;;;;;;30.85;82.50;100553.42;180981;1261;60716;-89
2023/08/20 06:15:15;;;;;;;10.70;9.20;;;;;;;31.68;78.08;100556.17;181149;1259;44005;-90
2023/08/20 06:19:19;;;;;;;;;;;;;;;31.81;74.95;100563.34;181151;1260;44011;-90
2023/08/20 06:23:23;;;;;;;10.00;8.60;;;;;;;31.83;74.48;100564.08;181105;1260;43419;-90
2023/08/20 06:27:45;;;;;;;11.90;9.40;;;;;;;31.68;74.27;100567.23;181067;1260;43999;-90
2023/08/20 06:31:50;;;;;;;12.60;9.80;;;;;;;31.46;74.21;100568.05;181162;1260;58920;-91
2023/08/20 06:35:54;;;;;;;12.70;10.50;;;;;;;31.29;75.87;100569.85;181140;1260;44097;-89
2023/08/20 06:39:58;;;;;;;13.30;11.80;;;;;;;31.16;77.39;100576.92;181062;1259;43761;-89
2023/08/20 06:44:03;;;;;;;11.30;8.60;;;;;;;30.93;77.77;100580.68;181064;1260;47187;-90
2023/08/20 06:48:07;;;;;;;;;;;;;;;30.85;77.93;100581.33;181020;1260;46159;-90
2023/08/20 06:52:11;;;;;;;13.30;11.60;;;;;;;30.91;77.70;100583.23;181009;1260;59569;-90
2023/08/20 06:56:16;;;;;;;10.60;9.60;;;;;;;31.02;79.09;100582.31;180980;1260;43892;-89
2023/08/20 07:00:20;;;;;;;10.20;9.20;;;;;;;31.06;79.05;100584.69;180937;1262;43852;-89
2023/08/20 07:04:24;;;;;;;10.70;9.20;;;;;;;31.13;79.37;100583.92;181044;1262;43875;-89
2023/08/20 07:08:34;;;;;;;10.20;9.20;;;;;;;31.22;77.88;100588.17;181223;1259;83272;-66
2023/08/20 07:13:12;;;;;;;11.50;9.10;;;;;;;31.07;76.21;100595.17;153786;1265;85879;-67
2023/08/20 07:17:16;;;;;;;10.30;7.90;;;;;;;30.83;75.53;100595.98;158611;1259;84160;-67
2023/08/20 07:21:21;;;;;;;10.90;8.20;;;;;;;30.63;79.88;100598.50;181717;1259;43735;-68
2023/08/20 07:25:37;;;;;;;12.30;10.40;;;;;;;30.54;81.17;100606.30;181603;1258;43332;-68
2023/08/20 07:29:41;;;;;;;8.90;8.10;;;;;;;30.29;82.78;100610.65;181576;1258;43091;-66
2023/08/20 07:33:50;;;;;;;14.80;9.70;;;;;;;30.01;84.89;100610.85;181501;1259;59584;-66
2023/08/20 07:37:53;;;;;;;11.80;10.10;;;;;;;29.78;83.65;100611.75;181480;1260;43120;-65
2023/08/20 07:41:55;;;;;;;13.50;9.40;;;;;;;29.71;84.75;100613.27;181529;1259;43376;-68
2023/08/20 07:46:24;;;;;;;11.20;9.70;;;;;;;29.68;86.92;100617.77;181642;1259;43240;-68
2023/08/20 07:50:27;;;;;;;11.80;10.20;;;;;;;29.59;85.51;100614.30;181638;1259;43039;-63
2023/08/20 07:54:31;;;;;;;12.40;10.20;;;;;;;29.43;85.20;100615.02;181670;1260;58057;-63
2023/08/20 07:58:34;;;;;;;11.40;10.20;;;;;;;29.13;83.02;100626.86;181528;1258;43053;-63
2023/08/20 08:02:37;;;;;;;11.10;9.00;;;;;;;28.99;86.71;100637.17;181704;1258;43661;-63
2023/08/20 08:06:40;;;;;;;12.90;9.50;;;;;;;28.87;85.36;100641.26;181695;1259;43710;-63
2023/08/20 08:10:44;;;;;;;13.00;10.00;;;;;;;28.76;83.64;100644.48;181709;1258;43414;-63
2023/08/20 08:14:47;;;;;;;11.10;8.70;;;;;;;28.73;83.72;100639.82;181636;1259;58339;-63
2023/08/20 08:18:50;;;;;;;9.90;8.20;;;;;;;28.79;85.04;100634.33;181696;1259;43082;-63
2023/08/20 08:22:53;;;;;;;23.60;10.70;;;;;;;28.89;81.94;100630.57;181650;1258;44033;-63
2023/08/20 08:26:56;;;;;;;8.30;7.50;;;;;;;29.06;80.59;100626.34;181708;1258;43081;-63
2023/08/20 08:30:59;;;;;;;15.40;8.70;;;;;;;29.06;78.90;100634.60;181737;1259;43447;-63
2023/08/20 08:35:04;;;;;;;8.70;7.00;;;;;;;28.91;78.97;100637.23;181553;1258;58287;-62
2023/08/20 08:39:07;;;;;;;20.60;9.00;;;;;;;28.69;79.72;100641.74;181665;1259;43834;-61
2023/08/20 08:43:16;;;;;;;9.30;8.30;;;;;;;28.53;80.80;100643.58;181676;1260;43722;-61
2023/08/20 08:47:21;;;;;;;7.90;7.00;;;;;;;28.47;81.79;100647.39;181639;1260;43087;-61
2023/08/20 08:51:25;;;;;;;;;;;;;;;28.53;82.68;100646.73;181711;1260;43875;-61
2023/08/20 08:55:28;;;;;;;11.80;8.60;;;;;;;28.52;84.03;100649.95;181743;1258;57379;-63
2023/08/20 08:59:32;;;;;;;11.70;8.60;;;;;;;28.48;83.65;100650.61;181615;1260;43354;-63
2023/08/20 09:03:35;;;;;;;11.00;9.30;;;;;;;28.57;84.21;100649.29;181598;1260;43633;-63
2023/08/20 09:08:28;;;;;;;13.80;9.10;;;;;;;28.88;85.62;100645.04;181676;1259;43841;-63
2023/08/20 09:12:34;;;;;;;8.70;7.80;;;;;;;29.44;85.37;100647.92;181659;1258;43011;-63
2023/08/20 09:16:37;;;;;;;16.10;10.30;;;;;;;29.88;82.13;100649.70;181716;1259;58038;-65
2023/08/20 09:20:40;;;;;;;17.40;9.40;;;;;;;30.19;78.62;100651.54;181630;1259;43050;-65
2023/08/20 09:24:51;;;;;;;12.80;10.30;;;;;;;30.49;78.26;100650.42;181664;1259;43636;-65
2023/08/20 09:28:58;;;;;;;8.90;7.80;;;;;;;30.78;78.31;100649.90;181689;1258;43740;-64
2023/08/20 09:33:10;;;;;;;10.50;8.30;;;;;;;31.01;78.59;100653.21;181364;1258;207058;-66
2023/08/20 09:37:15;;;;;;;14.20;8.80;;;;;;;31.21;77.41;100645.69;181498;1260;58076;-65
2023/08/20 09:41:18;;;;;;;;;;;;;;;31.38;74.42;100645.69;181697;1260;43665;-63
2023/08/20 09:45:49;;;;;;;9.00;8.10;;;;;;;31.57;74.00;100635.95;181660;1258;43440;-67
2023/08/20 09:49:54;;;;;;;8.70;6.90;;;;;;;31.75;72.29;100640.10;181650;1258;43776;-66
2023/08/20 09:54:11;;;;;;;;;;;;;;;31.83;71.25;100644.39;181541;1259;43047;-65
2023/08/20 09:58:16;;;;;;;8.40;7.00;;;;;;;31.80;69.47;100646.64;181683;1260;58204;-66
2023/08/20 10:02:22;;;;;;;8.50;7.70;;;;;;;31.79;71.56;100645.72;181693;1259;43467;-67
2023/08/20 10:06:27;;;;;;;10.10;7.70;;;;;;;31.81;71.71;100645.39;181552;1258;43013;-66
2023/08/20 10:10:30;;;;;;;;;;;;;;;31.84;71.32;100640.54;181564;1260;43687;-67
2023/08/20 10:14:34;;;;;;;10.80;8.50;;;;;;;31.83;70.68;100640.14;181671;1260;42853;-65
2023/08/20 10:19:01;;;;;;;12.60;9.00;;;;;;;31.95;68.44;100637.40;181619;1260;57967;-66
2023/08/20 10:23:04;;;;;;;10.00;8.60;;;;;;;32.02;67.01;100630.70;181613;1258;43026;-64
2023/08/20 10:27:08;;;;;;;9.10;8.20;;;;;;;32.14;69.81;100630.52;181696;1259;43074;-65
2023/08/20 10:31:13;;;;;;;15.40;8.40;;;;;;;32.27;69.44;100635.36;181547;1259;43730;-66
2023/08/20 10:35:27;;;;;;;8.10;7.10;;;;;;;32.39;68.43;100627.75;181717;1258;42990;-65
2023/08/20 10:39:30;;;;;;;8.70;6.70;;;;;;;32.49;66.15;100628.66;181660;1258;57416;-64
2023/08/20 10:43:38;;;;;;;8.90;7.20;;;;;;;32.69;65.27;100626.30;181525;1259;43437;-65
2023/08/20 10:47:41;;;;;;;10.30;8.10;;;;;;;32.87;63.80;100626.41;181513;1259;43049;-64
2023/08/20 10:51:47;;;;;;;6.90;6.20;;;;;;;32.85;61.57;100621.93;181556;1260;43891;-64
2023/08/20 11:01:17;;;;;;;7.60;5.90;;;;;;;33.12;61.11;100618.88;181601;1260;58021;-64
2023/08/20 11:05:23;;;;;;;10.70;7.70;;;;;;;33.35;62.36;100617.74;181659;1260;43112;-64
2023/08/20 11:09:56;;;;;;;18.20;6.70;;;;;;;33.54;60.39;100617.43;181556;1260;43782;-64
2023/08/20 11:14:07;;;;;;;8.00;7.20;;;;;;;33.70;59.99;100614.76;181703;1260;43101;-64
2023/08/20 11:18:11;;;;;;;7.90;7.00;;;;;;;33.80;60.34;100610.91;181662;1260;43005;-65
2023/08/20 11:22:23;;;;;;;13.40;7.00;;;;;;;33.93;58.04;100614.08;181617;1258;57230;-61
2023/08/20 11:26:26;;;;;;;8.00;6.30;;;;;;;34.13;57.66;100608.89;181663;1259;43127;-64
2023/08/20 11:30:29;;;;;;;11.20;6.60;;;;;;;34.26;57.36;100605.57;181718;1259;43979;-64
2023/08/20 11:35:33;;;;;;;7.40;6.60;;;;;;;34.25;56.36;100600.82;181690;1260;43475;-62
2023/08/20 11:39:37;;;;;;;8.70;7.00;;;;;;;34.33;56.66;100603.69;181616;1260;43427;-62
2023/08/20 11:43:53;;;;;;;17.90;7.40;;;;;;;34.46;55.88;100606.43;181518;1258;58162;-64
2023/08/20 11:47:57;;;;;;;8.20;6.20;;;;;;;34.48;56.52;100610.13;181554;1259;43057;-63
2023/08/20 11:52:00;;;;;;;13.90;6.30;;;;;;;34.62;55.71;100611.28;181728;1258;43086;-63
2023/08/20 11:56:03;;;;;;;8.10;5.10;;;;;;;34.67;55.12;100608.95;181296;1262;43547;-65
2023/08/20 12:00:26;;;;;;;7.30;5.80;;;;;;;34.54;56.26;100610.64;181213;1266;43719;-63
2023/08/20 12:04:30;;;;;;;5.90;5.30;;;;;;;34.54;54.29;100608.64;181079;1268;58019;-64
2023/08/20 12:11:57;;;;;;;9.10;6.40;;;;;;;34.65;58.82;100591.61;177236;1283;567536;-84
2023/08/20 12:16:01;;;;;;;6.60;5.50;;;;;;;34.81;55.95;100587.13;179711;1264;58148;-83
2023/08/20 12:20:12;;;;;;;6.00;5.40;;;;;;;35.07;55.41;100579.58;180107;1260;45967;-83
2023/08/20 12:24:16;;;;;;;8.50;6.20;;;;;;;35.21;55.36;100578.35;180602;1254;170376;-83
2023/08/20 12:28:19;;;;;;;8.50;6.10;;;;;;;35.03;56.80;100576.22;180844;1254;46015;-83
2023/08/20 12:32:23;;;;;;;14.70;7.40;;;;;;;34.87;57.07;100579.81;180983;1254;45758;-83
2023/08/20 12:36:27;;;;;;;6.20;5.60;;;;;;;34.80;57.79;100578.63;181083;1254;57935;-83
2023/08/20 12:40:30;;;;;;;7.20;6.50;;;;;;;34.70;57.39;100578.66;180815;1256;44591;-83
2023/08/20 12:44:34;;;;;;;5.90;5.30;;;;;;;34.82;54.71;100576.58;181431;1254;43625;-83
2023/08/20 12:48:37;;;;;;;6.60;6.00;;;;;;;34.84;55.72;100574.52;180916;1254;46481;-83
2023/08/20 12:52:42;;;;;;;;;;;;;;;34.72;55.02;100571.41;181123;1257;44533;-83
2023/08/20 12:56:47;;;;;;;5.80;5.20;;;;;;;34.30;56.57;100575.98;181077;1254;58584;-84
2023/08/20 13:00:51;;;;;;;6.70;6.00;;;;;;;34.24;57.30;100577.25;180583;1256;46009;-83
2023/08/20 13:04:58;;;;;;;6.70;6.00;;;;;;;34.34;56.54;100570.05;180903;1254;51062;-82
2023/08/20 13:09:03;;;;;;;6.20;5.40;;;;;;;34.50;57.57;100572.36;181006;1254;43910;-81
2023/08/20 13:13:11;;;;;;;11.10;6.70;;;;;;;34.64;56.45;100569.63;181007;1254;43741;-83
2023/08/20 13:17:15;;;;;;;7.20;6.30;;;;;;;34.85;56.45;100568.21;180936;1254;57451;-82
2023/08/20 13:21:21;;;;;;;6.10;5.50;;;;;;;35.00;57.35;100566.01;180882;1254;44601;-83
2023/08/20 13:25:25;;;;;;;6.80;5.80;;;;;;;35.11;56.72;100561.27;180841;1254;44455;-84
2023/08/20 13:29:29;;;;;;;;;;;;;;;35.18;57.22;100563.77;181601;1250;45968;-83
2023/08/20 13:33:34;;;;;;;14.50;5.60;;;;;;;35.26;55.36;100561.89;181524;1251;44308;-84
2023/08/20 13:37:38;;;;;;;6.20;5.40;;;;;;;35.26;52.43;100559.52;181425;1250;59802;-84
2023/08/20 13:41:42;;;;;;;7.80;5.10;;;;;;;35.18;52.95;100555.21;181507;1251;44659;-84
2023/08/20 13:45:46;;;;;;;20.50;8.30;;;;;;;35.03;53.87;100556.83;181582;1251;44655;-82
2023/08/20 13:49:51;;;;;;;24.30;9.40;;;;;;;34.75;54.66;100549.31;181945;1251;45903;-82
2023/08/20 13:53:56;;;;;;;11.00;6.00;;;;;;;34.53;54.83;100548.49;181969;1253;43710;-82
2023/08/20 13:58:01;;;;;;;8.70;6.00;;;;;;;34.25;57.19;100543.48;181566;1250;59971;-82
2023/08/20 14:02:06;;;;;;;6.70;5.80;;;;;;;34.06;60.17;100539.48;181883;1251;44153;-82
2023/08/20 14:06:10;;;;;;;7.90;7.20;;;;;;;34.02;59.32;100540.04;181818;1250;44160;-82
2023/08/20 14:10:15;;;;;;;7.40;5.80;;;;;;;33.97;59.53;100534.63;181556;1250;45887;-82
2023/08/20 14:14:20;;;;;;;6.80;5.60;;;;;;;33.87;59.02;100537.64;181736;1250;45341;-82
2023/08/20 14:18:25;;;;;;;7.10;6.50;;;;;;;33.86;58.75;100540.41;181898;1251;59584;-82
2023/08/20 14:22:30;;;;;;;6.70;6.00;;;;;;;33.76;57.55;100541.95;181546;1250;43438;-82
2023/08/20 14:26:34;;;;;;;9.30;7.00;;;;;;;33.65;58.61;100544.38;181592;1251;43664;-82
2023/08/20 14:30:39;;;;;;;24.00;8.80;;;;;;;33.45;59.29;100544.74;181612;1251;43815;-83
2023/08/20 14:34:44;;;;;;;9.30;7.40;;;;;;;33.45;61.45;100544.42;181514;1250;45974;-82
2023/08/20 14:38:48;;;;;;;6.50;5.90;;;;;;;33.57;61.09;100542.27;181607;1251;57639;-82
2023/08/20 14:42:53;;;;;;;5.90;5.40;;;;;;;33.77;59.75;100537.43;181443;1251;45985;-84
2023/08/20 14:46:58;;;;;;;;;;;;;;;33.95;58.42;100537.88;181840;1251;43753;-84
2023/08/20 14:51:03;;;;;;;7.30;6.50;;;;;;;34.12;58.54;100538.14;181495;1250;44722;-83
2023/08/20 14:55:09;;;;;;;8.40;7.60;;;;;;;34.28;60.08;100540.87;181341;1251;43594;-83
2023/08/20 14:59:13;;;;;;;7.30;6.10;;;;;;;34.31;59.92;100542.46;181598;1249;59901;-83
2023/08/20 15:03:18;;;;;;;7.70;6.40;;;;;;;34.36;59.65;100540.95;181393;1250;45095;-83
2023/08/20 15:07:22;;;;;;;;;;;;;;;34.36;58.02;100542.34;181438;1253;45944;-84
2023/08/20 15:11:27;;;;;;;6.20;5.50;;;;;;;34.34;58.56;100539.31;181372;1250;45660;-84
2023/08/20 15:15:32;;;;;;;7.50;6.80;;;;;;;34.30;60.94;100536.01;181800;1250;44022;-85
2023/08/20 15:19:36;;;;;;;18.00;8.60;;;;;;;34.37;59.53;100534.38;181328;1250;58474;-85
2023/08/20 15:23:40;;;;;;;8.40;6.20;;;;;;;34.33;59.13;100528.11;181735;1251;43608;-85
2023/08/20 15:27:44;;;;;;;10.60;7.00;;;;;;;34.33;59.83;100525.84;180614;1250;44015;-85
2023/08/20 15:31:51;;;;;;;7.10;6.30;;;;;;;34.36;60.14;100521.48;180982;1250;45973;-85
2023/08/20 15:35:57;;;;;;;6.70;6.10;;;;;;;34.33;59.49;100516.17;180806;1251;45955;-85
2023/08/20 15:40:01;;;;;;;6.50;5.90;;;;;;;34.33;59.81;100513.92;180580;1250;58553;-85
2023/08/20 15:44:04;;;;;;;10.20;6.70;;;;;;;34.33;59.62;100513.91;180634;1250;46027;-85
2023/08/20 15:48:08;;;;;;;41.30;11.70;;;;;;;34.31;60.29;100510.28;180869;1249;45982;-85
2023/08/20 15:52:14;;;;;;;11.10;6.80;;;;;;;34.20;60.84;100512.41;181098;1251;45947;-85
2023/08/20 15:56:17;;;;;;;7.90;6.80;;;;;;;34.07;60.17;100509.84;180896;1251;45137;-85
2023/08/20 16:00:21;;;;;;;8.60;7.80;;;;;;;34.05;61.34;100511.28;180647;1251;59476;-85
2023/08/20 16:04:24;;;;;;;21.00;10.40;;;;;;;34.01;61.08;100507.25;180955;1251;44052;-85
2023/08/20 16:08:28;;;;;;;8.50;7.40;;;;;;;33.99;62.01;100510.63;180855;1250;46053;-84
2023/08/20 16:12:31;;;;;;;7.50;6.80;;;;;;;33.87;62.69;100508.64;180776;1251;44913;-85
2023/08/20 16:16:35;;;;;;;8.40;6.90;;;;;;;33.76;63.59;100500.58;180809;1250;45736;-85
2023/08/20 16:20:39;;;;;;;12.60;8.70;;;;;;;33.64;64.54;100499.54;181019;1251;60562;-84
2023/08/20 16:24:42;;;;;;;10.00;9.10;;;;;;;33.56;64.19;100505.76;180700;1251;44312;-84
2023/08/20 16:28:46;;;;;;;10.70;8.80;;;;;;;33.42;65.49;100505.91;180634;1249;45109;-85
2023/08/20 16:32:50;;;;;;;9.00;8.10;;;;;;;33.29;64.70;100508.09;180836;1251;45907;-84
2023/08/20 16:36:54;;;;;;;11.20;9.20;;;;;;;33.19;66.35;100509.95;180796;1250;45907;-84
2023/08/20 16:41:02;;;;;;;10.20;8.10;;;;;;;33.07;66.52;100511.36;180617;1249;57911;-85
2023/08/20 16:45:06;;;;;;;9.80;8.50;;;;;;;32.99;66.22;100519.38;180905;1250;45852;-85
2023/08/20 16:49:10;;;;;;;9.40;8.50;;;;;;;32.87;66.16;100520.48;181016;1250;45864;-84
2023/08/20 16:53:15;;;;;;;8.90;8.00;;;;;;;32.75;66.07;100522.58;181558;1250;43374;-82
2023/08/20 16:57:20;;;;;;;10.40;8.70;;;;;;;32.62;66.24;100524.89;182431;1251;43856;-82
2023/08/20 17:01:25;;;;;;;10.10;7.30;;;;;;;32.53;67.09;100524.23;181558;1251;58271;-82
2023/08/20 17:05:29;;;;;;;7.00;6.40;;;;;;;32.41;67.91;100522.95;181385;1251;44143;-82
2023/08/20 17:09:33;;;;;;;9.00;7.30;;;;;;;32.25;68.66;100521.54;181327;1250;44555;-82
2023/08/20 17:13:38;;;;;;;8.00;7.10;;;;;;;32.10;69.66;100527.98;181293;1250;44237;-81
2023/08/20 17:17:43;;;;;;;8.30;7.60;;;;;;;31.95;70.85;100533.04;181297;1251;45142;-82
2023/08/20 17:21:48;;;;;;;7.80;6.90;;;;;;;31.79;70.63;100538.23;181453;1249;59677;-82
2023/08/20 17:25:56;;;;;;;9.30;6.20;;;;;;;31.66;70.46;100542.45;181473;1249;45903;-82
2023/08/20 17:30:04;;;;;;;9.30;7.20;;;;;;;31.57;70.79;100545.05;181740;1250;44218;-83
2023/08/20 17:34:15;;;;;;;10.00;7.40;;;;;;;31.47;71.27;100547.83;181561;1251;44211;-82
2023/08/20 17:38:42;;;;;;;6.90;6.20;;;;;;;31.35;71.68;100544.86;181172;1256;44591;-89
2023/08/20 17:42:46;;;;;;;8.10;6.30;;;;;;;31.27;72.26;100548.08;180443;1254;59527;-90
2023/08/20 17:46:51;;;;;;;8.60;7.80;;;;;;;31.16;72.98;100549.97;180731;1254;46140;-91
2023/08/20 17:50:56;;;;;;;11.40;8.60;;;;;;;31.02;73.61;100555.30;180644;1255;52141;-90
2023/08/20 19:45:18;;;;;;;42.30;11.80;;;;;;;28.17;93.14;100637.56;180179;1261;43589;-68
2023/08/20 19:49:21;;;;;;;19.20;10.80;;;;;;;28.14;93.55;100638.03;180261;1259;45907;-68
2023/08/20 19:53:24;;;;;;;39.00;14.20;;;;;;;28.10;94.35;100635.05;180223;1260;58899;-69
2023/08/20 19:57:29;;;;;;;69.00;17.80;;;;;;;28.02;94.73;100635.34;180321;1261;43590;-69
2023/08/20 20:01:57;;;;;;;10.70;9.00;;;;;;;27.93;95.40;100645.73;180225;1261;43809;-69
2023/08/20 20:06:00;;;;;;;13.00;10.60;;;;;;;27.84;95.04;100652.71;180112;1261;46056;-65
2023/08/20 20:10:05;;;;;;;27.60;11.70;;;;;;;27.72;94.78;100654.19;180206;1262;44697;-65
2023/08/20 20:14:11;;;;;;;16.50;9.30;;;;;;;27.56;94.65;100656.10;180258;1260;58409;-67
2023/08/20 20:18:16;;;;;;;14.50;9.40;;;;;;;27.35;92.83;100655.09;180400;1260;46076;-66
2023/08/20 20:22:25;;;;;;;12.40;9.60;;;;;;;27.13;93.50;100666.52;180435;1262;46065;-66
2023/08/20 20:26:29;;;;;;;11.30;10.40;;;;;;;26.91;95.73;100673.13;180402;1259;45888;-66
2023/08/20 20:30:33;;;;;;;15.70;10.40;;;;;;;26.80;99.05;100668.73;180478;1264;43798;-66
2023/08/20 20:34:37;;;;;;;10.00;9.00;;;;;;;26.77;99.88;100676.89;180535;1261;58527;-65
2023/08/20 20:39:08;;;;;;;11.20;9.90;;;;;;;26.81;100.00;100672.48;180478;1261;43795;-67